createdAt,value
2022-07-29T00:02:26.887Z,0.90
2022-07-29T00:04:54.050Z,1.00
2022-07-29T00:07:21.138Z,0.90
2022-07-29T00:09:51.902Z,0.93
2022-07-29T00:12:25.403Z,1.20
2022-07-29T00:14:55.577Z,1.00
2022-07-29T00:17:22.989Z,1.17
2022-07-29T00:19:49.580Z,1.00
2022-07-29T00:22:16.285Z,0.85
2022-07-29T00:24:43.055Z,0.90
2022-07-29T00:27:09.588Z,1.00
2022-07-29T00:29:36.206Z,1.10
2022-07-29T00:32:03.500Z,1.00
2022-07-29T00:34:59.081Z,0.90
2022-07-29T00:37:25.852Z,1.00
2022-07-29T00:39:52.513Z,0.90
2022-07-29T00:42:19.053Z,1.13
2022-07-29T00:44:45.665Z,0.90
2022-07-29T00:47:12.642Z,0.90
2022-07-29T00:49:41.313Z,1.08
2022-07-29T00:52:09.164Z,1.00
2022-07-29T00:54:43.900Z,0.90
2022-07-29T00:57:12.027Z,0.90
2022-07-29T00:59:38.570Z,1.17
2022-07-29T01:02:05.199Z,1.00
2022-07-29T01:04:32.873Z,1.10
2022-07-29T01:07:01.532Z,0.80
2022-07-29T01:09:35.926Z,1.02
2022-07-29T01:12:19.294Z,0.80
2022-07-29T01:14:47.530Z,0.98
2022-07-29T01:17:29.598Z,0.90
2022-07-29T01:20:12.237Z,0.98
2022-07-29T01:23:09.448Z,0.90
2022-07-29T01:25:44.714Z,0.80
2022-07-29T01:28:49.151Z,0.90
2022-07-29T01:31:25.151Z,0.82
2022-07-29T01:34:00.237Z,0.80
2022-07-29T01:36:33.498Z,0.90
2022-07-29T01:39:46.619Z,1.00
2022-07-29T01:42:22.379Z,0.90
2022-07-29T01:44:59.432Z,0.88
2022-07-29T01:47:32.981Z,0.90
2022-07-29T01:50:05.048Z,0.90
2022-07-29T01:52:59.442Z,1.02
2022-07-29T01:55:29.777Z,0.90
2022-07-29T01:57:58.762Z,0.80
2022-07-29T02:00:26.677Z,0.80
2022-07-29T02:02:54.880Z,0.90
2022-07-29T02:05:23.220Z,0.70
2022-07-29T02:07:51.886Z,0.80
2022-07-29T02:10:26.113Z,0.90
2022-07-29T02:12:54.890Z,0.88
2022-07-29T02:15:27.513Z,0.85
2022-07-29T02:18:09.437Z,0.88
2022-07-29T02:20:38.470Z,1.00
2022-07-29T02:23:05.668Z,0.80
2022-07-29T02:25:36.973Z,0.85
2022-07-29T02:28:06.215Z,0.75
2022-07-29T02:30:33.930Z,0.80
2022-07-29T02:33:00.991Z,0.80
2022-07-29T02:35:28.220Z,0.85
2022-07-29T02:38:20.859Z,0.80
2022-07-29T02:40:47.926Z,0.80
2022-07-29T02:43:15.173Z,0.80
2022-07-29T02:45:42.508Z,0.90
2022-07-29T02:48:14.135Z,0.80
2022-07-29T02:50:49.731Z,0.80
2022-07-29T02:53:19.812Z,1.05
2022-07-29T02:55:55.546Z,0.80
2022-07-29T02:58:40.734Z,0.90
2022-07-29T03:01:20.907Z,0.90
2022-07-29T03:03:50.168Z,1.00
2022-07-29T03:06:31.375Z,0.93
2022-07-29T03:09:12.323Z,0.90
2022-07-29T03:11:49.294Z,0.90
2022-07-29T03:14:20.308Z,0.80
2022-07-29T03:16:47.928Z,0.80
2022-07-29T03:19:15.262Z,0.75
2022-07-29T03:21:41.856Z,0.90
2022-07-29T03:24:12.763Z,0.77
2022-07-29T03:26:39.393Z,0.82
2022-07-29T03:29:05.942Z,0.70
2022-07-29T03:31:34.978Z,0.77
2022-07-29T03:34:01.533Z,0.80
2022-07-29T03:36:28.096Z,0.90
2022-07-29T03:38:55.644Z,1.13
2022-07-29T03:41:23.787Z,0.85
2022-07-29T03:43:51.903Z,0.73
2022-07-29T03:46:21.604Z,1.00
2022-07-29T03:48:53.644Z,0.70
2022-07-29T03:51:20.323Z,0.85
2022-07-29T03:54:00.303Z,0.70
2022-07-29T03:56:29.025Z,0.80
2022-07-29T03:58:56.549Z,0.65
2022-07-29T04:01:23.764Z,0.85
2022-07-29T04:03:50.687Z,0.70
2022-07-29T04:06:17.262Z,0.70
2022-07-29T04:08:43.826Z,0.88
2022-07-29T04:11:10.472Z,0.90
2022-07-29T04:13:37.010Z,0.63
2022-07-29T04:16:03.700Z,0.80
2022-07-29T04:18:30.278Z,0.88
2022-07-29T04:20:57.013Z,0.75
2022-07-29T04:23:23.647Z,0.80
2022-07-29T04:25:50.329Z,0.75
2022-07-29T04:28:17.067Z,0.80
2022-07-29T04:30:43.771Z,0.80
2022-07-29T04:33:10.373Z,0.70
2022-07-29T04:35:43.612Z,0.70
2022-07-29T04:38:17.283Z,0.80
2022-07-29T04:40:44.022Z,0.70
2022-07-29T04:43:10.558Z,0.90
2022-07-29T04:45:39.102Z,0.73
2022-07-29T04:48:05.834Z,0.80
2022-07-29T04:50:32.834Z,0.80
2022-07-29T04:52:59.539Z,0.80
2022-07-29T04:55:26.429Z,0.70
2022-07-29T04:57:52.942Z,0.80
2022-07-29T05:00:19.473Z,0.90
2022-07-29T05:02:46.075Z,0.80
2022-07-29T05:05:12.674Z,0.70
2022-07-29T05:07:41.823Z,1.00
2022-07-29T05:10:09.318Z,1.00
2022-07-29T05:12:35.967Z,1.75
2022-07-29T05:15:02.524Z,5.03
2022-07-29T05:17:29.095Z,3.97
2022-07-29T05:19:55.696Z,4.75
2022-07-29T05:22:22.682Z,3.10
2022-07-29T05:24:49.264Z,3.50
2022-07-29T05:27:15.971Z,3.38
2022-07-29T05:29:45.621Z,3.05
2022-07-29T05:32:13.641Z,3.03
2022-07-29T05:34:50.264Z,2.75
2022-07-29T05:37:21.513Z,3.10
2022-07-29T05:39:50.398Z,2.85
2022-07-29T05:42:23.085Z,2.80
2022-07-29T05:44:49.624Z,2.75
2022-07-29T05:47:16.985Z,2.78
2022-07-29T05:49:43.547Z,2.53
2022-07-29T05:52:10.434Z,2.60
2022-07-29T05:54:37.103Z,2.50
2022-07-29T05:57:04.214Z,3.13
2022-07-29T05:59:30.821Z,2.58
2022-07-29T06:01:58.514Z,2.85
2022-07-29T06:04:25.293Z,2.97
2022-07-29T06:06:51.896Z,2.95
2022-07-29T06:09:18.415Z,2.25
2022-07-29T06:11:44.938Z,2.45
2022-07-29T06:14:11.522Z,2.85
2022-07-29T06:16:38.141Z,2.70
2022-07-29T06:19:05.422Z,2.80
2022-07-29T06:21:32.035Z,2.60
2022-07-29T06:23:58.592Z,2.53
2022-07-29T06:26:28.470Z,2.58
2022-07-29T06:28:58.154Z,2.60
2022-07-29T06:31:24.876Z,2.40
2022-07-29T06:33:51.577Z,2.30
2022-07-29T06:36:21.317Z,2.20
2022-07-29T06:38:51.424Z,2.30
2022-07-29T06:41:19.158Z,2.55
2022-07-29T06:43:51.902Z,2.60
2022-07-29T06:46:22.019Z,2.20
2022-07-29T06:48:49.469Z,2.47
2022-07-29T06:51:22.739Z,2.45
2022-07-29T06:53:59.345Z,2.20
2022-07-29T06:56:31.658Z,2.08
2022-07-29T06:58:58.405Z,2.40
2022-07-29T07:01:24.982Z,2.05
2022-07-29T07:03:51.579Z,2.35
2022-07-29T07:06:18.241Z,2.47
2022-07-29T07:08:44.813Z,2.00
2022-07-29T07:11:11.395Z,2.00
2022-07-29T07:13:38.088Z,2.00
2022-07-29T07:16:05.251Z,2.30
2022-07-29T07:18:32.045Z,2.03
2022-07-29T07:20:58.923Z,2.15
2022-07-29T07:23:26.419Z,2.25
2022-07-29T07:25:53.271Z,2.40
2022-07-29T07:28:25.091Z,2.13
2022-07-29T07:30:52.615Z,2.10
2022-07-29T07:33:19.468Z,2.00
2022-07-29T07:35:46.247Z,1.92
2022-07-29T07:38:12.907Z,1.95
2022-07-29T07:40:39.597Z,1.90
2022-07-29T07:43:06.144Z,2.00
2022-07-29T07:45:38.119Z,2.00
2022-07-29T07:48:05.474Z,1.70
2022-07-29T07:50:32.058Z,1.92
2022-07-29T07:52:58.937Z,1.80
2022-07-29T07:55:26.630Z,1.63
2022-07-29T07:57:53.670Z,1.80
2022-07-29T08:00:23.017Z,1.60
2022-07-29T08:02:51.008Z,1.85
2022-07-29T08:05:18.389Z,1.75
2022-07-29T08:07:48.746Z,1.83
2022-07-29T08:10:36.566Z,1.73
2022-07-29T08:13:07.728Z,1.70
2022-07-29T08:15:34.532Z,1.80
2022-07-29T08:18:05.235Z,1.95
2022-07-29T08:20:36.494Z,1.40
2022-07-29T08:23:03.985Z,1.70
2022-07-29T08:25:30.745Z,1.77
2022-07-29T08:27:57.509Z,1.60
2022-07-29T08:30:24.216Z,1.65
2022-07-29T08:32:55.057Z,2.00
2022-07-29T08:35:23.660Z,1.50
2022-07-29T08:37:50.285Z,1.73
2022-07-29T08:40:17.189Z,1.90
2022-07-29T08:42:43.722Z,1.40
2022-07-29T08:45:12.079Z,1.70
2022-07-29T08:47:40.838Z,1.63
2022-07-29T08:50:09.570Z,1.50
2022-07-29T08:52:41.242Z,1.60
2022-07-29T08:55:09.738Z,1.90
2022-07-29T08:57:37.134Z,1.52
2022-07-29T09:00:11.575Z,1.70
2022-07-29T09:02:46.778Z,1.83
2022-07-29T09:05:14.214Z,1.52
2022-07-29T09:07:43.201Z,1.50
2022-07-29T09:10:10.176Z,1.83
2022-07-29T09:12:38.194Z,1.55
2022-07-29T09:15:05.201Z,1.90
2022-07-29T09:17:46.210Z,1.80
2022-07-29T09:20:18.496Z,1.88
2022-07-29T09:22:50.138Z,1.75
2022-07-29T09:25:40.066Z,1.80
2022-07-29T09:28:14.710Z,1.70
2022-07-29T09:30:55.367Z,1.50
2022-07-29T09:33:23.145Z,1.15
2022-07-29T09:36:06.096Z,1.60
2022-07-29T09:38:33.839Z,1.40
2022-07-29T09:41:05.806Z,1.70
2022-07-29T09:43:33.548Z,1.40
2022-07-29T09:46:12.521Z,1.48
2022-07-29T09:48:39.341Z,1.55
2022-07-29T09:51:07.426Z,1.40
2022-07-29T09:53:36.807Z,1.38
2022-07-29T09:56:04.949Z,1.58
2022-07-29T09:58:34.620Z,1.70
2022-07-29T10:01:01.470Z,1.70
2022-07-29T10:03:28.262Z,1.65
2022-07-29T10:06:12.132Z,1.52
2022-07-29T10:08:39.214Z,1.40
2022-07-29T10:11:22.035Z,1.38
2022-07-29T10:13:49.667Z,1.30
2022-07-29T10:16:17.735Z,1.50
2022-07-29T10:18:45.247Z,1.63
2022-07-29T10:21:22.585Z,1.60
2022-07-29T10:24:01.227Z,1.65
2022-07-29T10:26:29.241Z,1.80
2022-07-29T10:28:56.627Z,1.60
2022-07-29T10:31:30.776Z,1.30
2022-07-29T10:34:06.025Z,1.40
2022-07-29T10:37:08.331Z,1.50
2022-07-29T10:39:56.507Z,1.45
2022-07-29T10:42:29.791Z,1.70
2022-07-29T10:45:01.723Z,1.52
2022-07-29T10:47:28.818Z,1.27
2022-07-29T10:50:05.615Z,1.27
2022-07-29T10:52:50.276Z,1.30
2022-07-29T10:55:35.746Z,1.50
2022-07-29T10:58:19.019Z,1.75
2022-07-29T11:00:48.022Z,1.73
2022-07-29T11:03:49.468Z,1.58
2022-07-29T11:06:26.615Z,1.75
2022-07-29T11:09:20.482Z,1.58
2022-07-29T11:12:04.582Z,1.70
2022-07-29T11:15:01.534Z,1.67
2022-07-29T11:20:43.782Z,1.20
2022-07-29T11:23:34.039Z,1.50
2022-07-29T11:26:10.368Z,1.58
2022-07-29T11:28:51.110Z,1.50
2022-07-29T11:31:40.417Z,1.60
2022-07-29T11:34:27.806Z,1.63
2022-07-29T11:37:08.371Z,1.60
2022-07-29T11:39:37.642Z,1.70
2022-07-29T11:42:28.528Z,1.60
2022-07-29T11:45:04.372Z,1.85
2022-07-29T11:47:48.543Z,1.90
2022-07-29T11:50:31.180Z,1.88
2022-07-29T11:53:00.518Z,1.90
2022-07-29T11:55:32.597Z,1.90
2022-07-29T11:58:04.041Z,2.10
2022-07-29T12:00:39.266Z,1.67
2022-07-29T12:03:08.327Z,2.25
2022-07-29T12:05:47.962Z,2.00
2022-07-29T12:08:26.849Z,1.80
2022-07-29T12:10:53.420Z,1.60
2022-07-29T12:13:22.144Z,1.80
2022-07-29T12:16:00.013Z,1.80
2022-07-29T12:18:27.912Z,2.05
2022-07-29T12:20:59.116Z,1.90
2022-07-29T12:23:35.076Z,1.50
2022-07-29T12:26:04.999Z,1.50
2022-07-29T12:28:39.300Z,1.73
2022-07-29T12:31:06.009Z,1.60
2022-07-29T12:33:35.913Z,1.60
2022-07-29T12:36:07.680Z,1.55
2022-07-29T12:38:38.041Z,1.60
2022-07-29T12:41:05.190Z,1.70
2022-07-29T12:43:32.565Z,1.60
2022-07-29T12:46:12.102Z,1.70
2022-07-29T12:48:41.439Z,1.65
2022-07-29T12:51:10.037Z,1.58
2022-07-29T12:53:40.118Z,1.85
2022-07-29T12:56:20.760Z,1.67
2022-07-29T12:58:53.613Z,1.52
2022-07-29T13:01:22.615Z,1.55
2022-07-29T13:04:03.878Z,1.83
2022-07-29T13:06:33.852Z,1.60
2022-07-29T13:09:08.261Z,1.70
2022-07-29T13:11:44.034Z,1.23
2022-07-29T13:14:18.112Z,1.50
2022-07-29T13:17:15.026Z,1.42
2022-07-29T13:19:43.010Z,1.35
2022-07-29T13:22:11.807Z,1.83
2022-07-29T13:24:47.409Z,1.70
2022-07-29T13:27:19.114Z,1.70
2022-07-29T13:29:46.270Z,1.48
2022-07-29T13:32:13.976Z,1.65
2022-07-29T13:34:41.684Z,1.48
2022-07-29T13:37:08.244Z,1.60
2022-07-29T13:39:34.786Z,1.42
2022-07-29T13:42:02.151Z,1.40
2022-07-29T13:44:28.762Z,1.70
2022-07-29T13:46:55.429Z,1.63
2022-07-29T13:49:22.253Z,1.60
2022-07-29T13:51:50.402Z,1.77
2022-07-29T13:54:16.964Z,1.50
2022-07-29T13:56:43.514Z,1.35
2022-07-29T13:59:10.089Z,1.70
2022-07-29T14:01:39.936Z,1.50
2022-07-29T14:04:06.513Z,1.60
2022-07-29T14:06:33.069Z,1.50
2022-07-29T14:08:59.691Z,1.40
2022-07-29T14:11:26.322Z,1.55
2022-07-29T14:13:53.121Z,1.42
2022-07-29T14:16:19.691Z,1.42
2022-07-29T14:18:46.261Z,1.30
2022-07-29T14:21:13.428Z,1.15
2022-07-29T14:23:42.332Z,1.60
2022-07-29T14:26:12.422Z,1.73
2022-07-29T14:28:42.667Z,1.58
2022-07-29T14:31:09.235Z,1.42
2022-07-29T14:33:35.884Z,1.50
2022-07-29T14:36:02.518Z,1.63
2022-07-29T14:38:29.546Z,1.48
2022-07-29T14:40:56.126Z,1.45
2022-07-29T14:43:22.652Z,1.35
2022-07-29T14:45:49.261Z,1.35
2022-07-29T14:48:15.844Z,1.42
2022-07-29T14:50:42.410Z,1.52
2022-07-29T14:53:09.209Z,1.52
2022-07-29T14:55:36.414Z,1.60
2022-07-29T14:58:09.870Z,1.45
2022-07-29T15:00:38.663Z,1.45
2022-07-29T15:03:05.299Z,1.40
2022-07-29T15:05:32.352Z,1.73
2022-07-29T15:07:59.910Z,1.30
2022-07-29T15:10:30.129Z,1.35
2022-07-29T15:12:57.283Z,1.20
2022-07-29T15:15:23.982Z,1.30
2022-07-29T15:17:50.534Z,1.60
2022-07-29T15:20:17.098Z,1.40
2022-07-29T15:22:44.258Z,1.45
2022-07-29T15:25:10.915Z,1.70
2022-07-29T15:27:37.498Z,1.90
2022-07-29T15:30:04.425Z,1.60
2022-07-29T15:32:31.265Z,1.73
2022-07-29T15:34:57.816Z,1.73
2022-07-29T15:37:24.434Z,1.70
2022-07-29T15:39:51.296Z,1.83
2022-07-29T15:42:17.941Z,1.60
2022-07-29T15:44:44.519Z,1.98
2022-07-29T15:47:11.044Z,1.88
2022-07-29T15:49:47.915Z,1.70
2022-07-29T15:52:24.972Z,1.70
2022-07-29T15:54:52.201Z,1.98
2022-07-29T15:57:18.745Z,2.20
2022-07-29T15:59:45.337Z,1.83
2022-07-29T16:02:11.864Z,1.98
2022-07-29T16:04:38.857Z,2.00
2022-07-29T16:07:05.646Z,2.17
2022-07-29T16:09:32.211Z,1.90
2022-07-29T16:11:58.925Z,2.38
2022-07-29T16:14:28.386Z,2.00
2022-07-29T16:16:56.960Z,2.30
2022-07-29T16:19:23.833Z,2.13
2022-07-29T16:21:50.420Z,1.92
2022-07-29T16:24:16.957Z,2.13
2022-07-29T16:26:43.509Z,1.90
2022-07-29T16:29:10.080Z,2.35
2022-07-29T16:31:36.717Z,1.63
2022-07-29T16:34:03.354Z,2.20
2022-07-29T16:36:29.970Z,2.25
2022-07-29T16:38:56.530Z,2.28
2022-07-29T16:41:23.344Z,1.85
2022-07-29T16:43:49.993Z,2.00
2022-07-29T16:46:18.879Z,2.65
2022-07-29T16:48:46.103Z,1.95
2022-07-29T16:51:14.557Z,2.30
2022-07-29T16:53:41.547Z,1.95
2022-07-29T16:56:08.499Z,2.15
2022-07-29T16:58:43.562Z,2.20
2022-07-29T17:01:11.350Z,2.20
2022-07-29T17:04:00.158Z,2.30
2022-07-29T17:06:28.645Z,2.47
2022-07-29T17:08:56.402Z,2.70
2022-07-29T17:11:22.978Z,2.70
2022-07-29T17:14:10.388Z,2.60
2022-07-29T17:16:37.025Z,3.45
2022-07-29T17:19:03.981Z,2.83
2022-07-29T17:21:30.538Z,3.70
2022-07-29T17:23:59.253Z,2.85
2022-07-29T17:26:27.508Z,2.90
2022-07-29T17:28:55.299Z,3.05
2022-07-29T17:31:22.025Z,3.20
2022-07-29T17:33:48.668Z,2.75
2022-07-29T17:36:23.985Z,2.33
2022-07-29T17:38:52.991Z,2.75
2022-07-29T17:41:20.348Z,2.83
2022-07-29T17:43:47.102Z,2.38
2022-07-29T17:46:13.801Z,2.70
2022-07-29T17:48:41.345Z,3.20
2022-07-29T17:51:08.436Z,2.60
2022-07-29T17:53:35.006Z,2.80
2022-07-29T17:56:01.816Z,2.50
2022-07-29T17:58:28.415Z,2.38
2022-07-29T18:00:54.978Z,2.35
2022-07-29T18:03:21.720Z,2.90
2022-07-29T18:05:49.438Z,2.28
2022-07-29T18:08:17.092Z,2.60
2022-07-29T18:10:44.965Z,2.65
2022-07-29T18:13:16.418Z,2.40
2022-07-29T18:15:45.120Z,2.55
2022-07-29T18:18:15.902Z,2.60
2022-07-29T18:20:43.479Z,2.58
2022-07-29T18:23:10.343Z,2.20
2022-07-29T18:25:37.223Z,2.60
2022-07-29T18:28:03.975Z,2.50
2022-07-29T18:30:31.075Z,2.40
2022-07-29T18:33:19.863Z,2.33
2022-07-29T18:35:44.555Z,2.47
2022-07-29T18:38:11.397Z,2.40
2022-07-29T18:40:40.064Z,2.40
2022-07-29T18:43:07.257Z,2.50
2022-07-29T18:45:33.929Z,2.50
2022-07-29T18:48:02.049Z,2.40
2022-07-29T18:50:29.944Z,2.22
2022-07-29T18:52:58.914Z,2.15
2022-07-29T18:55:25.941Z,2.20
2022-07-29T18:57:55.049Z,2.40
2022-07-29T19:00:23.906Z,2.33
2022-07-29T19:02:50.691Z,2.35
2022-07-29T19:05:17.371Z,2.40
2022-07-29T19:07:43.896Z,2.30
2022-07-29T19:10:11.233Z,2.38
2022-07-29T19:12:37.918Z,2.40
2022-07-29T19:15:04.837Z,2.30
2022-07-29T19:17:31.394Z,2.42
2022-07-29T19:19:58.146Z,2.38
2022-07-29T19:22:24.848Z,2.38
2022-07-29T19:24:51.566Z,2.45
2022-07-29T19:27:18.119Z,2.30
2022-07-29T19:29:44.629Z,2.30
2022-07-29T19:32:11.253Z,2.05
2022-07-29T19:34:38.352Z,1.90
2022-07-29T19:37:06.028Z,2.28
2022-07-29T19:39:35.238Z,2.38
2022-07-29T19:42:03.435Z,1.95
2022-07-29T19:44:31.017Z,2.00
2022-07-29T19:47:00.524Z,2.30
2022-07-29T19:49:27.568Z,2.17
2022-07-29T19:51:54.170Z,2.30
2022-07-29T19:54:20.803Z,2.28
2022-07-29T19:56:47.378Z,2.33
2022-07-29T19:59:14.590Z,2.22
2022-07-29T20:01:41.373Z,2.08
2022-07-29T20:04:08.090Z,2.45
2022-07-29T20:06:34.879Z,2.10
2022-07-29T20:09:01.445Z,2.70
2022-07-29T20:11:29.728Z,2.35
2022-07-29T20:13:56.401Z,2.50
2022-07-29T20:16:23.066Z,2.20
2022-07-29T20:18:51.989Z,2.33
2022-07-29T20:21:18.546Z,2.33
2022-07-29T20:23:45.938Z,2.13
2022-07-29T20:26:12.760Z,2.20
2022-07-29T20:28:40.300Z,2.28
2022-07-29T20:31:07.091Z,2.60
2022-07-29T20:33:33.808Z,2.28
2022-07-29T20:36:00.410Z,2.15
2022-07-29T20:38:28.457Z,2.30
2022-07-29T20:40:58.542Z,2.20
2022-07-29T20:43:27.057Z,2.30
2022-07-29T20:45:53.632Z,2.00
2022-07-29T20:48:20.220Z,2.10
2022-07-29T20:50:48.751Z,1.90
2022-07-29T20:53:16.692Z,2.00
2022-07-29T20:55:43.457Z,1.90
2022-07-29T20:58:10.280Z,2.13
2022-07-29T21:00:37.323Z,2.10
2022-07-29T21:03:04.207Z,1.92
2022-07-29T21:05:31.431Z,2.03
2022-07-29T21:07:58.371Z,2.42
2022-07-29T21:10:25.750Z,1.80
2022-07-29T21:12:52.347Z,2.53
2022-07-29T21:15:20.818Z,2.05
2022-07-29T21:17:48.189Z,1.98
2022-07-29T21:20:16.520Z,2.00
2022-07-29T21:22:43.361Z,2.00
2022-07-29T21:25:10.932Z,1.90
2022-07-29T21:27:56.220Z,2.00
2022-07-29T21:30:23.124Z,1.70
2022-07-29T21:32:49.733Z,1.90
2022-07-29T21:35:35.928Z,1.90
2022-07-29T21:38:03.303Z,1.90
2022-07-29T21:40:30.457Z,1.67
2022-07-29T21:42:57.061Z,2.00
2022-07-29T21:45:23.737Z,1.98
2022-07-29T21:47:50.240Z,1.98
2022-07-29T21:50:16.837Z,1.80
2022-07-29T21:52:43.433Z,1.85
2022-07-29T21:55:10.677Z,2.00
2022-07-29T21:57:38.231Z,1.80
2022-07-29T22:00:06.289Z,2.00
2022-07-29T22:02:32.821Z,1.90
2022-07-29T22:04:59.370Z,2.13
2022-07-29T22:07:25.924Z,1.95
2022-07-29T22:10:12.564Z,2.00
2022-07-29T22:12:39.076Z,1.80
2022-07-29T22:15:06.040Z,1.88
2022-07-29T22:17:32.801Z,2.03
2022-07-29T22:19:59.429Z,2.00
2022-07-29T22:22:26.105Z,1.98
2022-07-29T22:24:52.836Z,1.98
2022-07-29T22:27:19.389Z,1.90
2022-07-29T22:29:45.942Z,1.85
2022-07-29T22:32:12.557Z,2.13
2022-07-29T22:34:39.123Z,1.90
2022-07-29T22:37:05.921Z,2.17
2022-07-29T22:39:32.458Z,1.52
2022-07-29T22:41:58.986Z,1.80
2022-07-29T22:44:25.534Z,1.70
2022-07-29T22:46:52.091Z,1.88
2022-07-29T22:49:18.780Z,1.80
2022-07-29T22:51:45.331Z,1.60
2022-07-29T22:54:11.890Z,1.83
2022-07-29T22:56:38.430Z,2.17
2022-07-29T22:59:04.976Z,1.85
2022-07-29T23:01:37.206Z,1.77
2022-07-29T23:04:04.818Z,1.85
2022-07-29T23:06:31.424Z,1.85
2022-07-29T23:08:57.952Z,1.90
2022-07-29T23:11:24.581Z,1.80
2022-07-29T23:13:51.146Z,1.80
2022-07-29T23:16:26.379Z,1.77
2022-07-29T23:18:53.955Z,1.90
2022-07-29T23:21:20.973Z,1.75
2022-07-29T23:23:48.757Z,1.58
2022-07-29T23:26:16.911Z,2.00
2022-07-29T23:28:44.782Z,1.80
2022-07-29T23:31:11.705Z,1.70
2022-07-29T23:33:38.262Z,1.77
2022-07-29T23:36:04.825Z,1.70
2022-07-29T23:38:31.424Z,1.83
2022-07-29T23:40:58.737Z,1.98
2022-07-29T23:43:25.309Z,1.92
2022-07-29T23:45:51.890Z,1.80
2022-07-29T23:48:20.840Z,1.90
2022-07-29T23:50:47.528Z,1.65
2022-07-29T23:53:14.132Z,1.65
2022-07-29T23:55:40.676Z,1.73
2022-07-29T23:58:07.194Z,2.10
